Time;durP1;ratioP1;P1;durP2;ratioP2;P2;SDS_P1;SDS_P2;PMS_P1;PMS_P2;Temp;Humidity;BMP_temperature;BMP_pressure;BME280_temperature;BME280_humidity;BME280_pressure;Samples;Min_cycle;Max_cycle;Signal;HPM_P1;HPM_P2
2023/09/25 00:00:23;;;;;;;7.55;2.15;;;13.80;99.90;;;;;;5017794;28;20045;-90
2023/09/25 00:02:49;;;;;;;5.95;2.13;;;13.80;99.90;;;;;;5013398;28;20038;-90
2023/09/25 00:05:16;;;;;;;4.80;1.73;;;13.70;99.90;;;;;;5014163;28;20412;-90
2023/09/25 00:07:42;;;;;;;6.85;1.90;;;13.70;99.90;;;;;;5017286;28;20108;-90
2023/09/25 00:10:08;;;;;;;8.38;1.92;;;13.60;99.90;;;;;;5052186;28;20040;-90
2023/09/25 00:12:33;;;;;;;6.53;3.13;;;13.70;99.90;;;;;;5018117;28;20036;-90
2023/09/25 00:14:59;;;;;;;9.57;2.15;;;13.70;99.90;;;;;;5017613;28;20044;-90
2023/09/25 00:17:24;;;;;;;6.50;2.22;;;13.70;99.90;;;;;;5034074;28;20041;-90
2023/09/25 00:19:50;;;;;;;8.13;3.20;;;13.60;99.90;;;;;;5016911;28;20048;-90
2023/09/25 00:22:16;;;;;;;4.45;1.52;;;13.60;99.90;;;;;;5033680;28;20082;-90
2023/09/25 00:24:42;;;;;;;8.13;2.38;;;13.70;99.90;;;;;;5033324;28;20114;-90
2023/09/25 00:27:09;;;;;;;4.80;1.70;;;13.60;99.90;;;;;;5033924;28;20516;-90
2023/09/25 00:29:34;;;;;;;6.32;1.98;;;13.50;99.90;;;;;;5033186;28;20420;-89
2023/09/25 00:32:00;;;;;;;7.70;2.95;;;13.50;99.90;;;;;;5033742;28;20514;-90
2023/09/25 00:34:25;;;;;;;7.45;2.42;;;13.60;99.90;;;;;;5033327;28;20040;-89
2023/09/25 00:36:51;;;;;;;7.05;2.90;;;13.60;99.90;;;;;;5033437;28;20036;-90
2023/09/25 00:39:16;;;;;;;8.05;2.78;;;13.60;99.90;;;;;;5032740;28;20089;-90
2023/09/25 00:41:42;;;;;;;8.52;3.45;;;13.60;99.90;;;;;;5016703;28;20128;-89
2023/09/25 00:44:08;;;;;;;6.30;2.95;;;13.70;99.90;;;;;;5016644;28;20518;-89
2023/09/25 00:46:33;;;;;;;4.57;1.75;;;13.70;99.90;;;;;;5032770;28;20045;-89
2023/09/25 00:49:00;;;;;;;6.88;3.30;;;13.70;99.90;;;;;;5031920;28;20033;-89
2023/09/25 00:51:26;;;;;;;7.55;2.80;;;13.60;99.90;;;;;;5016750;28;20036;-89
2023/09/25 00:53:52;;;;;;;4.50;1.85;;;13.70;99.90;;;;;;5016967;28;20037;-89
2023/09/25 00:56:18;;;;;;;5.30;1.95;;;13.60;99.90;;;;;;5033353;28;20045;-88
2023/09/25 00:58:44;;;;;;;5.28;1.90;;;13.50;99.90;;;;;;5016915;28;20062;-88
2023/09/25 01:01:11;;;;;;;7.63;3.15;;;13.50;99.90;;;;;;5016842;28;20619;-89
2023/09/25 01:03:36;;;;;;;8.27;3.05;;;13.50;99.90;;;;;;5016673;28;20041;-89
2023/09/25 01:06:04;;;;;;;7.07;3.38;;;13.60;99.90;;;;;;5016981;28;20572;-88
2023/09/25 01:08:30;;;;;;;7.65;3.40;;;13.60;99.90;;;;;;5032859;28;20060;-88
2023/09/25 01:10:57;;;;;;;5.03;1.92;;;13.60;99.90;;;;;;5050937;28;20044;-88
2023/09/25 01:13:23;;;;;;;4.75;1.63;;;13.50;99.90;;;;;;5033458;28;20462;-89
2023/09/25 01:15:49;;;;;;;7.13;3.10;;;13.40;99.90;;;;;;5033320;28;20037;-88
2023/09/25 01:18:14;;;;;;;5.57;2.10;;;13.40;99.90;;;;;;5033350;28;20037;-89
2023/09/25 01:20:40;;;;;;;5.60;1.77;;;13.40;99.90;;;;;;5016030;28;20037;-89
2023/09/25 01:23:06;;;;;;;7.93;2.38;;;13.30;99.90;;;;;;5051034;28;20059;-89
2023/09/25 01:25:31;;;;;;;6.28;2.42;;;13.30;99.90;;;;;;5016248;28;20045;-89
2023/09/25 01:27:57;;;;;;;9.07;2.17;;;13.30;99.90;;;;;;5016521;28;20037;-89
2023/09/25 01:30:24;;;;;;;5.13;1.83;;;13.20;99.90;;;;;;5017139;28;20068;-90
2023/09/25 01:32:51;;;;;;;7.68;3.03;;;13.20;99.90;;;;;;5017733;28;20064;-89
2023/09/25 01:35:23;;;;;;;5.07;1.75;;;13.30;99.90;;;;;;5018085;28;20051;-89
2023/09/25 01:37:49;;;;;;;7.50;3.37;;;13.20;99.90;;;;;;5061413;28;20036;-89
2023/09/25 01:40:18;;;;;;;4.07;1.80;;;13.20;99.90;;;;;;5034304;28;21084;-89
2023/09/25 01:42:45;;;;;;;6.05;2.20;;;13.20;99.90;;;;;;5012186;28;20045;-90
2023/09/25 01:45:13;;;;;;;6.60;2.10;;;13.10;99.90;;;;;;5020019;28;20037;-89
2023/09/25 01:47:40;;;;;;;6.80;3.10;;;13.10;99.90;;;;;;5019924;28;20041;-89
2023/09/25 01:50:09;;;;;;;5.07;1.85;;;13.10;99.90;;;;;;5019788;28;20500;-89
2023/09/25 01:52:35;;;;;;;7.07;2.17;;;13.20;99.90;;;;;;5020065;28;20472;-89
2023/09/25 01:55:01;;;;;;;4.63;1.73;;;13.10;99.90;;;;;;5036374;28;20128;-89
2023/09/25 01:57:26;;;;;;;5.30;1.98;;;13.00;99.90;;;;;;5020364;28;20496;-88
2023/09/25 01:59:52;;;;;;;5.78;2.33;;;13.00;99.90;;;;;;5020110;28;20503;-89
2023/09/25 02:02:18;;;;;;;8.63;2.35;;;13.00;99.90;;;;;;5019830;28;20052;-89
2023/09/25 02:04:43;;;;;;;6.88;2.70;;;13.00;99.90;;;;;;5016361;28;20048;-89
2023/09/25 02:07:09;;;;;;;9.95;2.20;;;12.90;99.90;;;;;;5015930;28;20508;-88
2023/09/25 02:09:34;;;;;;;7.63;3.33;;;12.90;99.90;;;;;;5035614;28;20573;-89
2023/09/25 02:12:00;;;;;;;10.48;3.67;;;12.90;99.90;;;;;;5020187;28;20035;-89
2023/09/25 02:14:26;;;;;;;8.50;3.42;;;13.00;99.90;;;;;;5054355;28;20160;-89
2023/09/25 02:16:51;;;;;;;5.35;1.98;;;13.00;99.90;;;;;;5020229;28;20440;-89
2023/09/25 02:19:18;;;;;;;7.55;3.90;;;12.90;99.90;;;;;;5035681;28;20496;-88
2023/09/25 02:21:44;;;;;;;4.30;1.90;;;12.90;99.90;;;;;;5035877;28;20059;-88
2023/09/25 02:24:10;;;;;;;7.00;3.60;;;12.90;99.90;;;;;;5019043;28;20040;-89
2023/09/25 02:26:35;;;;;;;5.28;2.00;;;12.90;99.90;;;;;;5053693;28;20051;-89
2023/09/25 02:29:01;;;;;;;6.47;2.33;;;12.90;99.90;;;;;;5019176;28;20120;-90
2023/09/25 02:31:27;;;;;;;6.85;2.38;;;12.80;99.90;;;;;;5035611;28;20041;-90
2023/09/25 02:33:52;;;;;;;6.60;2.40;;;12.70;99.90;;;;;;5051500;28;20093;-90
2023/09/25 02:36:18;;;;;;;7.57;3.70;;;12.70;99.90;;;;;;5056848;28;20369;-90
2023/09/25 02:38:43;;;;;;;6.55;2.05;;;12.80;99.90;;;;;;5025859;28;20029;-90
2023/09/25 02:41:09;;;;;;;4.78;1.90;;;12.70;99.90;;;;;;5026104;28;20489;-89
2023/09/25 02:43:35;;;;;;;9.23;3.95;;;12.70;99.90;;;;;;5036000;28;20119;-90
2023/09/25 02:46:00;;;;;;;7.38;2.00;;;12.70;99.90;;;;;;5032942;28;20042;-89
2023/09/25 02:48:26;;;;;;;7.53;3.72;;;12.70;99.90;;;;;;5019716;28;20393;-90
2023/09/25 02:50:52;;;;;;;5.07;2.00;;;12.80;99.90;;;;;;5032152;28;20135;-89
2023/09/25 02:53:17;;;;;;;5.75;2.35;;;12.70;99.90;;;;;;5030717;28;20045;-89
2023/09/25 02:55:50;;;;;;;5.00;2.05;;;12.60;99.90;;;;;;5052560;28;20412;-89
2023/09/25 02:58:16;;;;;;;4.60;1.73;;;12.60;99.90;;;;;;5034348;28;20107;-88
2023/09/25 03:00:41;;;;;;;7.55;2.42;;;12.60;99.90;;;;;;5017486;28;20041;-88
2023/09/25 03:03:07;;;;;;;8.15;2.78;;;12.60;99.90;;;;;;5034547;28;20086;-89
2023/09/25 03:05:33;;;;;;;6.18;2.15;;;12.60;99.90;;;;;;5033795;28;20060;-89
2023/09/25 03:07:58;;;;;;;7.50;3.75;;;12.60;99.90;;;;;;5017743;28;20554;-90
2023/09/25 03:10:24;;;;;;;6.13;3.28;;;12.70;99.90;;;;;;5033825;28;20124;-90
2023/09/25 03:12:50;;;;;;;5.75;2.20;;;12.70;99.90;;;;;;5018183;28;20108;-89
2023/09/25 03:15:15;;;;;;;5.70;2.08;;;12.70;99.90;;;;;;5017627;28;20045;-90
2023/09/25 03:17:41;;;;;;;4.05;1.40;;;12.60;99.90;;;;;;5017603;28;20159;-90
2023/09/25 03:20:14;;;;;;;7.00;2.10;;;12.60;99.90;;;;;;5034272;28;20511;-89
2023/09/25 03:22:44;;;;;;;7.65;3.85;;;12.60;99.90;;;;;;5018291;28;20037;-90
2023/09/25 03:25:10;;;;;;;5.20;2.08;;;12.70;99.90;;;;;;5052654;28;20067;-89
2023/09/25 03:27:37;;;;;;;6.10;2.42;;;12.60;99.90;;;;;;5017699;28;20028;-90
2023/09/25 03:30:04;;;;;;;5.35;1.67;;;12.60;99.90;;;;;;5018370;28;20037;-90
2023/09/25 03:32:30;;;;;;;7.47;3.50;;;12.50;99.90;;;;;;5052438;28;20535;-90
2023/09/25 03:34:56;;;;;;;6.95;2.35;;;12.60;99.90;;;;;;5052633;28;20068;-89
2023/09/25 03:37:21;;;;;;;8.25;3.58;;;12.60;99.90;;;;;;5052277;28;20041;-90
2023/09/25 03:39:47;;;;;;;7.30;3.80;;;12.60;99.90;;;;;;5033452;28;20041;-89
2023/09/25 03:42:13;;;;;;;8.27;2.50;;;12.70;99.90;;;;;;5018025;28;20088;-90
2023/09/25 03:44:38;;;;;;;5.38;2.35;;;12.60;99.90;;;;;;5017769;28;20454;-89
2023/09/25 03:47:04;;;;;;;4.05;1.92;;;12.60;99.90;;;;;;5017066;28;20045;-89
2023/09/25 03:49:29;;;;;;;6.30;2.50;;;12.50;99.90;;;;;;5017405;28;20036;-90
2023/09/25 03:51:55;;;;;;;7.93;3.58;;;12.50;99.90;;;;;;5016910;28;20074;-89
2023/09/25 03:54:21;;;;;;;6.93;3.72;;;12.60;99.90;;;;;;5017120;28;20043;-89
2023/09/25 03:56:46;;;;;;;5.05;2.25;;;12.70;99.90;;;;;;5033505;28;20408;-89
2023/09/25 03:59:12;;;;;;;6.18;2.00;;;12.60;99.90;;;;;;5033409;28;20033;-90
2023/09/25 04:01:37;;;;;;;8.27;4.10;;;12.50;99.90;;;;;;5033617;28;20456;-90
2023/09/25 04:04:03;;;;;;;8.07;4.25;;;12.60;99.90;;;;;;5016900;28;20052;-90
2023/09/25 04:06:29;;;;;;;9.27;4.45;;;12.60;99.90;;;;;;5015779;28;20037;-90
2023/09/25 04:08:55;;;;;;;8.05;2.05;;;12.70;99.90;;;;;;5024238;28;20092;-90
2023/09/25 04:11:20;;;;;;;5.65;2.17;;;12.60;99.90;;;;;;5031547;28;20083;-90
2023/09/25 04:13:47;;;;;;;6.00;2.20;;;12.50;99.90;;;;;;5037761;28;20048;-89
2023/09/25 04:16:14;;;;;;;4.97;2.08;;;12.50;99.90;;;;;;5022511;28;20048;-89
2023/09/25 04:18:42;;;;;;;6.93;2.50;;;12.50;99.90;;;;;;5033795;28;20048;-90
2023/09/25 04:21:11;;;;;;;8.90;4.70;;;12.50;99.90;;;;;;5017695;28;20128;-90
2023/09/25 04:23:37;;;;;;;5.25;2.10;;;12.50;99.90;;;;;;5033890;28;20041;-90
2023/09/25 04:26:03;;;;;;;8.35;2.33;;;12.50;99.90;;;;;;5030031;28;20075;-89
2023/09/25 04:28:30;;;;;;;6.35;2.85;;;12.50;99.90;;;;;;5031639;28;20040;-90
2023/09/25 04:30:59;;;;;;;7.72;2.67;;;12.50;99.90;;;;;;5017342;28;20036;-90
2023/09/25 04:33:26;;;;;;;8.32;2.88;;;12.40;99.90;;;;;;5034111;28;20032;-90
2023/09/25 04:35:58;;;;;;;7.15;2.45;;;12.40;99.90;;;;;;5034081;28;20044;-89
2023/09/25 04:38:25;;;;;;;4.90;2.03;;;12.40;99.90;;;;;;5017028;28;20116;-89
2023/09/25 04:40:51;;;;;;;6.32;2.20;;;12.40;99.90;;;;;;5033312;28;20127;-89
2023/09/25 04:43:17;;;;;;;6.93;3.72;;;12.40;99.90;;;;;;5016551;28;20591;-90
2023/09/25 04:45:44;;;;;;;6.00;2.60;;;12.50;99.90;;;;;;5015786;28;20044;-89
2023/09/25 04:48:09;;;;;;;7.38;2.25;;;12.50;99.90;;;;;;5015665;28;20103;-89
2023/09/25 04:50:37;;;;;;;7.93;3.78;;;12.40;99.90;;;;;;5016778;28;20562;-89
2023/09/25 04:53:03;;;;;;;5.13;2.03;;;12.50;99.90;;;;;;5017052;28;20041;-90
2023/09/25 04:55:29;;;;;;;7.82;1.98;;;12.50;99.90;;;;;;5050441;28;20115;-89
2023/09/25 04:57:54;;;;;;;4.78;2.13;;;12.50;99.90;;;;;;5032530;28;20448;-89
2023/09/25 05:00:27;;;;;;;7.13;2.67;;;12.40;99.90;;;;;;5033429;28;20036;-90
2023/09/25 05:02:54;;;;;;;5.53;2.00;;;12.40;99.90;;;;;;5016358;28;20124;-90
2023/09/25 05:05:21;;;;;;;7.55;3.88;;;12.40;99.90;;;;;;5015918;28;20068;-90
2023/09/25 05:07:48;;;;;;;7.22;3.60;;;12.50;99.90;;;;;;5050247;28;20403;-90
2023/09/25 05:10:16;;;;;;;6.53;2.42;;;12.60;99.90;;;;;;5016292;28;20037;-89
2023/09/25 05:12:42;;;;;;;6.30;2.05;;;12.50;99.90;;;;;;5050397;28;20124;-90
2023/09/25 05:15:09;;;;;;;6.05;2.15;;;12.50;99.90;;;;;;5033197;28;20037;-90
2023/09/25 05:17:38;;;;;;;7.85;2.53;;;12.50;99.90;;;;;;5051093;28;20033;-89
2023/09/25 05:20:12;;;;;;;8.65;4.20;;;12.40;99.90;;;;;;5032386;28;20164;-89
2023/09/25 05:22:43;;;;;;;8.18;4.47;;;12.50;99.90;;;;;;5016417;28;20470;-89
2023/09/25 05:25:09;;;;;;;7.85;4.03;;;12.60;99.90;;;;;;5016171;28;20099;-89
2023/09/25 05:27:36;;;;;;;6.07;2.25;;;12.60;99.90;;;;;;5015997;28;20037;-90
2023/09/25 05:30:09;;;;;;;7.90;4.28;;;12.50;99.90;;;;;;5016337;28;20033;-90
2023/09/25 05:32:36;;;;;;;5.40;2.17;;;12.60;99.90;;;;;;5014812;28;20044;-89
2023/09/25 05:35:02;;;;;;;9.48;4.25;;;12.50;99.90;;;;;;5032779;28;20044;-89
2023/09/25 05:37:27;;;;;;;6.75;2.40;;;12.50;99.90;;;;;;5029307;28;20029;-89
2023/09/25 05:39:53;;;;;;;8.05;2.50;;;12.50;99.90;;;;;;5018951;28;20036;-89
2023/09/25 05:42:19;;;;;;;6.45;2.60;;;12.50;99.90;;;;;;5040616;28;20039;-89
2023/09/25 05:44:44;;;;;;;7.93;2.95;;;12.50;99.90;;;;;;5039137;28;20065;-89
2023/09/25 05:47:10;;;;;;;6.78;2.10;;;12.50;99.90;;;;;;5021233;28;20069;-89
2023/09/25 05:49:35;;;;;;;4.35;1.83;;;12.40;99.90;;;;;;5032991;28;20408;-90
2023/09/25 05:52:01;;;;;;;5.72;2.28;;;12.40;99.90;;;;;;5013581;28;20492;-89
2023/09/25 05:54:26;;;;;;;6.50;1.95;;;12.40;99.90;;;;;;5030034;28;20041;-90
2023/09/25 05:56:53;;;;;;;6.07;2.35;;;12.40;99.90;;;;;;5032942;28;20144;-89
2023/09/25 05:59:19;;;;;;;7.20;2.05;;;12.40;99.90;;;;;;5032693;28;20515;-90
2023/09/25 06:01:45;;;;;;;7.95;3.80;;;12.40;99.90;;;;;;5016546;28;20051;-90
2023/09/25 06:04:10;;;;;;;9.30;4.40;;;12.50;99.90;;;;;;5016639;28;20060;-89
2023/09/25 06:06:36;;;;;;;5.43;2.17;;;12.60;99.90;;;;;;5032828;28;20045;-89
2023/09/25 06:09:04;;;;;;;6.30;1.90;;;12.60;99.90;;;;;;5008257;28;20033;-90
2023/09/25 06:11:31;;;;;;;6.32;2.05;;;12.60;99.90;;;;;;5032932;28;20095;-90
2023/09/25 06:13:56;;;;;;;6.10;2.60;;;12.60;99.90;;;;;;5016861;28;20044;-90
2023/09/25 06:16:22;;;;;;;5.55;2.20;;;12.60;99.90;;;;;;5032600;28;20443;-89
2023/09/25 06:18:48;;;;;;;8.18;4.10;;;12.60;99.90;;;;;;5032201;28;20083;-89
2023/09/25 06:21:14;;;;;;;8.07;3.60;;;12.70;99.90;;;;;;5015866;28;20045;-90
2023/09/25 06:23:40;;;;;;;8.48;3.70;;;12.80;99.90;;;;;;5015820;28;20099;-90
2023/09/25 06:26:09;;;;;;;8.23;3.80;;;12.90;99.90;;;;;;5032752;28;20128;-90
2023/09/25 06:28:35;;;;;;;6.18;2.45;;;12.90;99.90;;;;;;5052709;28;20032;-90
2023/09/25 06:31:01;;;;;;;4.43;1.63;;;12.90;99.90;;;;;;5053784;28;20044;-90
2023/09/25 06:33:28;;;;;;;8.43;2.13;;;12.90;99.90;;;;;;5019421;28;20037;-90
2023/09/25 06:35:54;;;;;;;7.95;3.60;;;12.90;99.90;;;;;;5018497;28;20055;-90
2023/09/25 06:38:20;;;;;;;6.45;2.25;;;13.00;99.90;;;;;;5034931;28;20127;-90
2023/09/25 06:40:46;;;;;;;8.70;3.40;;;13.00;99.90;;;;;;5036231;28;20565;-90
2023/09/25 06:43:13;;;;;;;5.15;2.15;;;13.10;99.90;;;;;;5026606;28;20577;-89
2023/09/25 06:45:39;;;;;;;5.25;2.03;;;13.10;99.90;;;;;;5019652;28;20044;-89
2023/09/25 06:48:05;;;;;;;4.68;1.60;;;13.20;99.90;;;;;;5040780;28;20048;-89
2023/09/25 06:50:31;;;;;;;7.80;3.60;;;13.10;99.90;;;;;;5023128;28;20041;-89
2023/09/25 06:52:57;;;;;;;9.38;2.28;;;13.30;99.90;;;;;;5035992;28;20075;-89
2023/09/25 06:55:23;;;;;;;6.82;2.28;;;13.30;99.90;;;;;;5019424;28;20041;-89
2023/09/25 06:57:49;;;;;;;5.88;2.20;;;13.30;99.90;;;;;;5021307;28;20090;-89
2023/09/25 07:00:16;;;;;;;7.40;3.10;;;13.40;99.90;;;;;;5036035;28;20037;-89
2023/09/25 07:02:42;;;;;;;4.53;1.70;;;13.50;99.90;;;;;;5018943;28;20041;-89
2023/09/25 07:05:09;;;;;;;8.20;2.20;;;13.60;99.90;;;;;;5035856;28;20045;-89
2023/09/25 07:07:36;;;;;;;5.97;1.70;;;13.60;99.90;;;;;;5052742;28;20041;-89
2023/09/25 07:10:06;;;;;;;6.93;3.10;;;13.60;99.90;;;;;;5053042;28;20075;-89
2023/09/25 07:12:33;;;;;;;6.20;2.72;;;13.80;99.90;;;;;;5018993;28;20043;-88
2023/09/25 07:15:01;;;;;;;7.05;3.10;;;13.90;99.90;;;;;;5018777;28;20033;-89
2023/09/25 07:17:28;;;;;;;7.35;2.65;;;14.00;99.90;;;;;;5035594;28;20040;-90
2023/09/25 07:19:57;;;;;;;7.45;2.97;;;14.10;99.90;;;;;;5018329;28;20054;-89
2023/09/25 07:22:25;;;;;;;6.90;3.38;;;14.20;99.90;;;;;;5035286;28;20052;-89
2023/09/25 07:24:51;;;;;;;7.80;2.85;;;14.30;99.90;;;;;;5035553;28;20033;-90
2023/09/25 07:27:17;;;;;;;7.32;2.88;;;14.30;99.90;;;;;;5018444;28;20124;-91
2023/09/25 07:29:46;;;;;;;4.38;1.67;;;14.50;99.90;;;;;;5043844;28;20029;-90
2023/09/25 07:32:13;;;;;;;4.18;1.60;;;14.50;99.90;;;;;;5049149;28;20037;-90
2023/09/25 07:34:39;;;;;;;4.55;1.65;;;14.50;99.90;;;;;;5052938;28;20052;-89
2023/09/25 07:37:05;;;;;;;6.40;1.52;;;14.60;99.90;;;;;;5017659;28;20528;-89
2023/09/25 07:39:34;;;;;;;7.47;2.70;;;14.60;99.90;;;;;;5017539;28;20044;-88
2023/09/25 07:42:01;;;;;;;7.25;2.78;;;14.80;99.90;;;;;;5034586;28;20055;-89
2023/09/25 07:44:27;;;;;;;8.05;2.63;;;14.90;99.90;;;;;;5038692;28;20048;-88
2023/09/25 07:46:53;;;;;;;7.50;1.98;;;15.00;99.90;;;;;;5031103;28;20045;-89
2023/09/25 07:49:23;;;;;;;4.53;1.75;;;15.00;99.90;;;;;;5019694;28;20076;-89
2023/09/25 07:51:49;;;;;;;7.57;2.78;;;15.00;99.90;;;;;;5043053;28;20017;-89
2023/09/25 07:54:15;;;;;;;7.53;2.70;;;15.20;99.90;;;;;;5025901;28;20468;-89
2023/09/25 07:56:41;;;;;;;4.40;1.35;;;15.30;99.90;;;;;;5018530;28;20068;-89
2023/09/25 07:59:08;;;;;;;5.10;1.55;;;15.30;99.90;;;;;;5015114;28;20068;-89
2023/09/25 08:01:34;;;;;;;7.32;2.63;;;15.30;99.90;;;;;;5016944;28;20716;-89
2023/09/25 08:04:00;;;;;;;8.77;2.70;;;15.40;99.90;;;;;;5018311;28;20079;-89
2023/09/25 08:06:27;;;;;;;4.97;1.70;;;15.50;99.90;;;;;;5017962;28;20077;-90
2023/09/25 08:08:53;;;;;;;7.28;2.00;;;15.50;99.90;;;;;;5017959;28;20036;-90
2023/09/25 08:11:19;;;;;;;4.10;1.55;;;15.50;99.90;;;;;;5017438;28;20037;-90
2023/09/25 08:13:44;;;;;;;6.60;1.83;;;15.50;99.90;;;;;;5034756;28;20037;-90
2023/09/25 08:16:11;;;;;;;7.10;2.50;;;15.60;99.90;;;;;;5017852;28;20501;-90
2023/09/25 08:18:36;;;;;;;7.13;2.63;;;15.70;99.90;;;;;;5034695;28;20043;-90
2023/09/25 08:21:04;;;;;;;5.28;1.50;;;15.80;99.90;;;;;;5017866;28;20505;-90
2023/09/25 08:23:30;;;;;;;6.40;1.80;;;15.80;99.90;;;;;;5017915;28;20033;-90
2023/09/25 08:25:56;;;;;;;6.05;1.75;;;15.80;99.90;;;;;;5034218;28;20041;-90
2023/09/25 08:28:22;;;;;;;7.65;2.60;;;15.90;99.90;;;;;;5017820;28;20033;-91
2023/09/25 08:30:48;;;;;;;7.25;2.20;;;16.00;99.90;;;;;;5017618;28;20037;-90
2023/09/25 08:33:15;;;;;;;6.65;1.80;;;16.10;99.90;;;;;;5034236;28;20029;-91
2023/09/25 08:35:42;;;;;;;5.75;2.03;;;16.20;99.90;;;;;;5034425;28;20464;-90
2023/09/25 08:38:08;;;;;;;9.13;2.70;;;16.20;99.90;;;;;;5033665;28;20451;-90
2023/09/25 08:40:36;;;;;;;5.43;1.70;;;16.30;99.90;;;;;;5017455;28;20045;-91
2023/09/25 08:43:02;;;;;;;6.78;2.35;;;16.50;99.90;;;;;;5034027;28;20044;-91
2023/09/25 08:45:28;;;;;;;7.25;2.72;;;16.60;99.90;;;;;;5033934;28;20558;-91
2023/09/25 08:47:54;;;;;;;4.63;1.35;;;16.70;99.90;;;;;;5016636;28;20585;-91
2023/09/25 08:50:20;;;;;;;7.88;2.40;;;16.80;99.90;;;;;;5016592;28;20033;-90
2023/09/25 08:52:47;;;;;;;7.72;2.63;;;16.80;99.90;;;;;;5014215;28;20111;-90
2023/09/25 08:55:13;;;;;;;6.65;2.05;;;16.90;99.90;;;;;;5022850;28;20033;-90
2023/09/25 08:57:39;;;;;;;7.55;2.53;;;16.80;99.90;;;;;;5043129;28;20033;-90
2023/09/25 09:00:11;;;;;;;9.40;2.58;;;16.90;99.90;;;;;;5005380;28;20053;-90
2023/09/25 09:02:40;;;;;;;7.03;2.40;;;16.90;99.90;;;;;;4997860;28;20044;-91
2023/09/25 09:05:07;;;;;;;4.78;1.90;;;16.90;99.90;;;;;;5003417;28;20029;-91
2023/09/25 09:07:33;;;;;;;7.18;2.67;;;16.90;99.90;;;;;;5017097;28;20257;-90
2023/09/25 09:09:59;;;;;;;8.80;2.88;;;17.00;99.90;;;;;;5017155;28;20036;-90
2023/09/25 09:12:25;;;;;;;4.90;1.60;;;17.10;99.90;;;;;;5017446;28;20045;-90
2023/09/25 09:14:50;;;;;;;6.10;2.38;;;17.20;99.90;;;;;;5030478;28;20041;-90
2023/09/25 09:17:16;;;;;;;10.05;2.90;;;17.30;99.90;;;;;;5033273;28;20044;-90
2023/09/25 09:19:48;;;;;;;6.13;1.73;;;17.40;99.90;;;;;;5033324;28;20158;-90
2023/09/25 09:22:16;;;;;;;6.70;2.70;;;17.50;99.90;;;;;;5017330;28;20083;-90
2023/09/25 09:24:43;;;;;;;6.90;2.20;;;17.60;99.90;;;;;;5036378;28;20082;-90
2023/09/25 09:27:11;;;;;;;6.45;2.08;;;17.70;97.20;;;;;;5045519;28;20454;-90
2023/09/25 09:29:42;;;;;;;4.18;1.50;;;17.80;99.90;;;;;;5025779;28;20417;-90
2023/09/25 09:32:08;;;;;;;6.90;2.33;;;17.90;99.90;;;;;;5054375;28;20112;-91
2023/09/25 09:34:35;;;;;;;7.55;2.80;;;18.00;99.90;;;;;;5038917;28;20041;-91
2023/09/25 09:37:01;;;;;;;6.97;2.42;;;18.20;99.90;;;;;;5050760;28;20531;-91
2023/09/25 09:39:34;;;;;;;6.50;2.20;;;18.20;98.10;;;;;;5019905;28;20037;-90
2023/09/25 09:42:03;;;;;;;7.10;2.40;;;18.30;96.30;;;;;;5039201;28;20535;-90
2023/09/25 09:44:30;;;;;;;6.65;2.17;;;18.40;95.40;;;;;;5022298;28;20068;-90
2023/09/25 09:46:55;;;;;;;10.18;2.80;;;18.30;95.90;;;;;;5019304;28;20048;-90
2023/09/25 09:49:24;;;;;;;6.57;2.10;;;18.40;92.70;;;;;;5016731;28;20042;-91
2023/09/25 09:51:50;;;;;;;7.25;2.35;;;18.40;94.10;;;;;;5017660;28;20037;-90
2023/09/25 09:54:21;;;;;;;8.65;2.60;;;18.40;93.10;;;;;;5016917;28;20033;-91
2023/09/25 09:56:47;;;;;;;4.78;1.90;;;18.40;92.00;;;;;;5016997;28;20385;-91
2023/09/25 09:59:17;;;;;;;5.97;2.10;;;18.40;92.30;;;;;;5032961;28;20041;-91
2023/09/25 10:01:50;;;;;;;7.32;2.17;;;18.50;94.30;;;;;;5018996;28;20119;-91
2023/09/25 10:04:15;;;;;;;5.70;2.17;;;18.60;90.90;;;;;;5043980;28;20385;-91
2023/09/25 10:06:50;;;;;;;7.18;2.35;;;18.60;89.70;;;;;;5044276;28;20040;-91
2023/09/25 10:09:16;;;;;;;6.13;2.10;;;18.60;90.40;;;;;;5054284;28;20033;-91
2023/09/25 10:11:43;;;;;;;6.82;2.20;;;18.60;89.80;;;;;;5044093;28;20549;-91
2023/09/25 10:14:09;;;;;;;6.30;2.33;;;18.60;91.00;;;;;;5027436;28;20087;-91
2023/09/25 10:17:00;;;;;;;6.28;2.00;;;18.60;90.90;;;;;;5027695;28;20516;-90
2023/09/25 10:19:45;;;;;;;7.63;2.50;;;18.70;91.60;;;;;;5025311;28;20048;-90
2023/09/25 10:22:21;;;;;;;5.93;2.05;;;18.80;88.00;;;;;;5042370;28;20415;-90
2023/09/25 10:24:58;;;;;;;7.03;2.10;;;18.90;87.80;;;;;;5036730;28;20132;-90
2023/09/25 10:27:24;;;;;;;5.53;2.03;;;18.90;89.30;;;;;;5020866;28;20127;-91
2023/09/25 10:30:11;;;;;;;7.45;2.35;;;19.00;89.60;;;;;;5036513;28;20052;-91
2023/09/25 10:32:40;;;;;;;6.72;2.33;;;19.00;86.50;;;;;;5019820;28;20451;-91
2023/09/25 10:35:38;;;;;;;6.72;2.22;;;19.10;89.50;;;;;;5020038;28;20765;-90
2023/09/25 10:38:12;;;;;;;6.05;2.20;;;19.20;90.60;;;;;;5019317;28;20047;-90
2023/09/25 10:40:42;;;;;;;6.93;2.40;;;19.30;86.20;;;;;;5020091;28;20048;-91
2023/09/25 10:43:08;;;;;;;7.50;2.40;;;19.30;86.60;;;;;;5019744;28;20393;-91
2023/09/25 10:45:35;;;;;;;6.82;2.40;;;19.40;86.00;;;;;;5036382;28;20048;-91
2023/09/25 10:48:01;;;;;;;7.47;2.38;;;19.50;87.50;;;;;;5036462;28;20049;-90
2023/09/25 10:50:27;;;;;;;6.70;2.40;;;19.50;84.50;;;;;;5036008;28;20094;-89
2023/09/25 10:52:52;;;;;;;6.40;2.15;;;19.60;84.30;;;;;;5019888;28;20124;-90
2023/09/25 10:55:20;;;;;;;6.38;2.22;;;19.60;83.90;;;;;;5024936;28;20039;-91
2023/09/25 10:57:46;;;;;;;5.90;1.95;;;19.70;82.20;;;;;;5027667;28;20029;-89
2023/09/25 11:00:15;;;;;;;6.57;2.10;;;19.80;82.40;;;;;;5038993;28;20048;-90
2023/09/25 11:02:41;;;;;;;7.68;2.60;;;19.80;82.50;;;;;;5025925;28;20040;-90
2023/09/25 11:05:07;;;;;;;7.30;2.30;;;19.80;83.50;;;;;;5043283;28;20059;-91
2023/09/25 11:07:38;;;;;;;8.82;2.72;;;19.90;84.30;;;;;;5025578;28;20044;-91
2023/09/25 11:10:04;;;;;;;6.50;2.08;;;19.90;82.60;;;;;;5042261;28;20382;-91
2023/09/25 11:12:30;;;;;;;7.13;2.10;;;19.90;82.90;;;;;;5042149;28;20118;-91
2023/09/25 11:14:57;;;;;;;7.50;2.15;;;20.00;83.00;;;;;;5025464;28;20033;-90
2023/09/25 11:17:23;;;;;;;7.97;2.42;;;20.00;83.70;;;;;;5024137;28;20184;-91
2023/09/25 11:19:51;;;;;;;5.65;2.08;;;20.00;82.40;;;;;;5044995;28;20051;-91
2023/09/25 11:22:24;;;;;;;7.03;2.28;;;20.00;80.10;;;;;;5018985;28;20118;-90
2023/09/25 11:24:58;;;;;;;6.88;2.40;;;20.10;80.60;;;;;;5028223;28;20037;-91
2023/09/25 11:27:24;;;;;;;7.32;2.50;;;20.10;81.30;;;;;;5018841;28;20048;-92
2023/09/25 11:29:50;;;;;;;7.22;2.30;;;20.10;81.60;;;;;;5018851;28;20033;-92
2023/09/25 11:32:16;;;;;;;5.68;1.80;;;20.10;81.00;;;;;;5019290;28;20080;-91
2023/09/25 11:34:47;;;;;;;6.13;2.03;;;20.20;80.90;;;;;;5037334;28;20443;-91
2023/09/25 11:37:20;;;;;;;5.95;2.20;;;20.30;80.60;;;;;;5025188;28;20045;-91
2023/09/25 11:39:46;;;;;;;6.75;2.30;;;20.30;79.30;;;;;;5024999;28;20040;-91
2023/09/25 11:42:12;;;;;;;5.85;2.00;;;20.40;79.30;;;;;;5042965;28;20041;-91
2023/09/25 11:44:38;;;;;;;7.68;2.38;;;20.50;80.10;;;;;;5028941;28;20037;-91
2023/09/25 11:47:06;;;;;;;6.85;2.30;;;20.60;79.80;;;;;;5044897;28;20072;-91
2023/09/25 11:49:31;;;;;;;8.07;2.25;;;20.70;78.80;;;;;;5025758;28;20029;-91
2023/09/25 11:51:57;;;;;;;7.07;1.92;;;20.70;78.10;;;;;;5028364;28;20036;-92
2023/09/25 11:54:23;;;;;;;5.90;1.90;;;20.80;78.20;;;;;;5045480;28;20075;-91
2023/09/25 11:56:48;;;;;;;6.70;2.35;;;20.80;80.00;;;;;;5028851;28;20496;-91
2023/09/25 11:59:16;;;;;;;6.95;2.25;;;20.90;80.50;;;;;;5021728;28;20044;-92
2023/09/25 12:01:41;;;;;;;7.85;2.40;;;20.90;78.60;;;;;;5020533;28;20041;-91
2023/09/25 12:04:09;;;;;;;6.47;1.92;;;21.00;78.00;;;;;;5000282;28;20045;-91
2023/09/25 12:06:35;;;;;;;11.15;2.33;;;21.10;78.80;;;;;;5008888;28;20044;-91
2023/09/25 12:09:10;;;;;;;6.28;2.20;;;21.10;78.30;;;;;;5034721;28;20037;-91
2023/09/25 12:11:37;;;;;;;6.78;2.22;;;21.10;78.10;;;;;;5018822;28;20053;-91
2023/09/25 12:14:03;;;;;;;8.23;2.47;;;21.20;78.40;;;;;;5018230;28;20130;-91
2023/09/25 12:16:30;;;;;;;6.03;2.22;;;21.30;76.10;;;;;;5034687;28;20049;-91
2023/09/25 12:18:56;;;;;;;8.75;2.65;;;21.30;77.40;;;;;;5017498;28;20037;-91
2023/09/25 12:21:22;;;;;;;6.10;2.33;;;21.40;77.00;;;;;;5034119;28;20041;-91
2023/09/25 12:23:48;;;;;;;6.70;2.33;;;21.50;76.20;;;;;;5034539;28;20073;-90
2023/09/25 12:26:15;;;;;;;7.03;2.53;;;21.50;76.40;;;;;;5033261;28;20122;-91
2023/09/25 12:28:41;;;;;;;6.90;2.53;;;21.50;75.60;;;;;;5017816;28;20044;-91
2023/09/25 12:31:07;;;;;;;6.95;2.15;;;21.60;76.80;;;;;;5017882;28;20033;-93
2023/09/25 12:33:33;;;;;;;6.93;2.13;;;21.60;76.90;;;;;;5017873;28;20059;-92
2023/09/25 12:35:59;;;;;;;9.85;2.28;;;21.70;76.00;;;;;;5034233;28;20534;-91
2023/09/25 12:38:25;;;;;;;7.32;2.28;;;21.70;77.10;;;;;;5034018;28;20542;-91
2023/09/25 12:40:51;;;;;;;7.78;2.15;;;21.70;77.60;;;;;;5033919;28;20040;-91
2023/09/25 12:43:16;;;;;;;7.75;2.50;;;21.90;78.20;;;;;;5034616;28;20395;-92